Terminal Aerodrome Forecast
Issued by NWS Quad Cities IA IL

Home | Current Version | Previous Version | Text Only | Print | Product List | Glossary On
Versions: 1 2 3 4 5 6 7 8 9 10 11 12 13 14 15 16 17 18 19 20 21 22 23 24 25 26 27 28
000
FTUS43 KDVN 272200 AAB
TAFDBQ
TAF AMD
KDBQ 272210Z 2722/2818 31008KT P6SM SKC
     FM280200 VRB03KT P6SM OVC070
     FM280700 17006KT P6SM VCSH OVC040
     FM281200 16013KT P6SM SCT020 OVC030=

USA.gov is the U.S. government's official web portal to all federal, state and local government web resources and services.